createdAt,value
2022-09-04T00:00:08.493Z,12.40
2022-09-04T00:05:38.202Z,14.20
2022-09-04T00:10:49.734Z,16.50
2022-09-04T00:15:57.976Z,14.60
2022-09-04T00:21:08.800Z,14.10
2022-09-04T00:26:20.968Z,13.10
2022-09-04T00:31:31.682Z,13.40
2022-09-04T00:36:33.071Z,13.80
2022-09-04T00:41:42.474Z,13.40
2022-09-04T00:47:03.847Z,12.20
2022-09-04T00:52:20.564Z,12.70
2022-09-04T00:58:04.887Z,11.20
2022-09-04T01:03:23.836Z,13.70
2022-09-04T01:08:43.600Z,10.60
2022-09-04T01:13:50.782Z,11.00
2022-09-04T01:19:02.205Z,9.90
2022-09-04T01:24:34.042Z,10.30
2022-09-04T01:29:47.216Z,10.40
2022-09-04T01:34:59.862Z,10.20
2022-09-04T01:40:22.303Z,11.40
2022-09-04T01:45:32.595Z,21.30
2022-09-04T01:50:34.536Z,41.70
2022-09-04T01:55:46.631Z,20.10
2022-09-04T02:01:00.104Z,11.60
2022-09-04T02:06:14.623Z,9.80
2022-09-04T02:11:26.548Z,10.20
2022-09-04T02:16:37.261Z,9.80
2022-09-04T02:21:46.206Z,9.90
2022-09-04T02:26:56.689Z,10.50
2022-09-04T02:32:03.124Z,11.30
2022-09-04T02:37:18.346Z,9.70
2022-09-04T02:42:31.168Z,11.40
2022-09-04T02:47:40.919Z,9.10
2022-09-04T02:53:04.609Z,8.30
2022-09-04T02:58:21.126Z,8.50
2022-09-04T03:03:29.793Z,10.70
2022-09-04T03:08:39.619Z,10.50
2022-09-04T03:13:48.185Z,9.00
2022-09-04T03:19:09.649Z,9.20
2022-09-04T03:24:19.285Z,10.90
2022-09-04T03:29:32.163Z,10.10
2022-09-04T03:34:49.343Z,9.60
2022-09-04T03:40:07.077Z,10.00
2022-09-04T03:45:24.583Z,10.10
2022-09-04T03:50:36.669Z,11.50
2022-09-04T03:56:07.902Z,10.50
2022-09-04T04:01:24.174Z,10.50
2022-09-04T04:06:37.147Z,11.50
2022-09-04T04:12:15.701Z,11.50
2022-09-04T04:17:34.887Z,12.70
2022-09-04T04:22:55.825Z,11.70
2022-09-04T04:28:20.246Z,11.00
2022-09-04T04:33:45.022Z,11.40
2022-09-04T04:39:10.253Z,9.50
2022-09-04T04:44:42.666Z,12.60
2022-09-04T04:50:06.792Z,11.60
2022-09-04T04:55:31.605Z,12.90
2022-09-04T05:00:40.387Z,13.10
2022-09-04T05:06:12.858Z,11.90
2022-09-04T05:11:24.263Z,10.50
2022-09-04T05:16:37.354Z,10.40
2022-09-04T05:21:50.178Z,9.70
2022-09-04T05:26:57.046Z,13.30
2022-09-04T05:32:06.102Z,12.70
2022-09-04T05:37:16.301Z,13.30
2022-09-04T05:42:45.514Z,12.30
2022-09-04T05:48:04.146Z,13.00
2022-09-04T05:53:42.369Z,12.50
2022-09-04T05:59:06.235Z,11.40
2022-09-04T06:04:33.111Z,10.80
2022-09-04T06:09:48.120Z,12.90
2022-09-04T06:15:13.543Z,13.80
2022-09-04T06:20:44.926Z,14.80
2022-09-04T06:26:14.808Z,12.50
2022-09-04T06:31:48.780Z,12.60
2022-09-04T06:37:12.199Z,12.90
2022-09-04T06:42:27.062Z,12.00
2022-09-04T06:47:43.155Z,12.70
2022-09-04T06:52:57.673Z,11.00
2022-09-04T06:58:20.546Z,9.40
2022-09-04T07:03:50.628Z,12.80
2022-09-04T07:09:05.744Z,11.10
2022-09-04T07:14:50.895Z,8.70
2022-09-04T07:20:22.420Z,9.90
2022-09-04T07:25:28.412Z,8.30
2022-09-04T07:30:33.125Z,11.20
2022-09-04T07:35:41.074Z,10.40
2022-09-04T07:40:46.960Z,7.70
2022-09-04T07:45:51.457Z,8.20
2022-09-04T07:51:10.396Z,8.30
2022-09-04T07:56:25.829Z,8.20
2022-09-04T08:02:01.265Z,9.60
2022-09-04T08:07:10.786Z,8.10
2022-09-04T08:12:30.789Z,6.90
2022-09-04T08:18:01.749Z,6.10
2022-09-04T08:23:21.686Z,6.70
2022-09-04T08:28:40.957Z,7.30
2022-09-04T08:34:15.697Z,6.60
2022-09-04T08:39:26.770Z,5.80
2022-09-04T08:45:16.566Z,6.40
2022-09-04T08:50:45.048Z,6.10
2022-09-04T08:56:18.693Z,6.40
2022-09-04T09:01:42.674Z,6.80
2022-09-04T09:07:13.757Z,5.70
2022-09-04T09:12:42.268Z,7.00
2022-09-04T09:18:01.366Z,5.50
2022-09-04T09:23:31.467Z,5.50
2022-09-04T09:29:35.818Z,5.80
2022-09-04T09:35:29.493Z,6.40
2022-09-04T09:41:30.233Z,6.40
2022-09-04T09:47:08.181Z,7.50
2022-09-04T09:52:48.291Z,5.30
2022-09-04T09:58:28.685Z,7.20
2022-09-04T10:04:12.691Z,8.70
2022-09-04T10:10:00.085Z,9.00
2022-09-04T10:15:33.312Z,7.10
2022-09-04T10:21:00.706Z,6.60
2022-09-04T10:26:35.386Z,7.60
2022-09-04T10:31:51.950Z,5.40
2022-09-04T10:37:08.478Z,7.70
2022-09-04T10:42:43.793Z,7.60
2022-09-04T10:48:27.850Z,7.40
2022-09-04T10:54:07.733Z,7.10
2022-09-04T10:59:35.927Z,7.60
2022-09-04T11:05:21.067Z,6.90
2022-09-04T11:10:43.730Z,6.40
2022-09-04T11:16:25.064Z,7.90
2022-09-04T11:22:27.723Z,9.50
2022-09-04T11:28:06.431Z,7.40
2022-09-04T11:33:57.926Z,6.50
2022-09-04T11:40:04.908Z,6.20
2022-09-04T11:45:56.893Z,7.00
2022-09-04T11:51:37.378Z,7.00
2022-09-04T11:57:08.998Z,6.70
2022-09-04T12:03:00.156Z,10.10
2022-09-04T12:08:25.534Z,9.10
2022-09-04T12:13:52.742Z,9.00
2022-09-04T12:19:47.174Z,7.80
2022-09-04T12:25:26.616Z,6.40
2022-09-04T12:30:32.808Z,6.50
2022-09-04T12:36:00.868Z,9.30
2022-09-04T12:41:10.251Z,6.50
2022-09-04T12:46:38.734Z,6.30
2022-09-04T12:51:50.668Z,7.50
2022-09-04T12:57:15.428Z,6.70
2022-09-04T13:02:31.924Z,5.60
2022-09-04T13:07:49.130Z,5.80
2022-09-04T13:13:00.410Z,6.00
2022-09-04T13:18:18.566Z,5.30
2022-09-04T13:23:37.038Z,6.30
2022-09-04T13:28:52.589Z,6.60
2022-09-04T13:34:05.216Z,6.60
2022-09-04T13:39:39.359Z,7.20
2022-09-04T13:45:00.145Z,6.80
2022-09-04T13:50:12.388Z,5.90
2022-09-04T13:55:20.980Z,6.50
2022-09-04T14:00:21.679Z,5.50
2022-09-04T14:05:27.344Z,6.60
2022-09-04T14:10:41.039Z,6.90
2022-09-04T14:16:04.147Z,6.50
2022-09-04T14:21:11.793Z,5.50
2022-09-04T14:26:25.801Z,6.50
2022-09-04T14:31:38.157Z,6.20
2022-09-04T14:37:01.997Z,5.40
2022-09-04T14:42:29.438Z,7.20
2022-09-04T14:47:37.289Z,8.30
2022-09-04T14:52:47.253Z,5.60
2022-09-04T14:57:55.332Z,7.50
2022-09-04T15:03:09.299Z,5.70
2022-09-04T15:08:13.134Z,5.60
2022-09-04T15:13:48.998Z,5.30
2022-09-04T15:19:03.877Z,5.80
2022-09-04T15:24:16.489Z,8.80
2022-09-04T15:29:25.285Z,8.10
2022-09-04T15:34:32.908Z,7.90
2022-09-04T15:39:42.146Z,6.10
2022-09-04T15:44:48.775Z,6.00
2022-09-04T15:49:54.002Z,5.20
2022-09-04T15:55:07.231Z,6.30
2022-09-04T16:00:14.608Z,6.60
2022-09-04T16:05:25.468Z,6.60
2022-09-04T16:10:41.529Z,6.40
2022-09-04T16:15:47.903Z,7.20
2022-09-04T16:20:55.333Z,5.10
2022-09-04T16:25:58.226Z,5.10
2022-09-04T16:31:03.364Z,6.50
2022-09-04T16:36:09.785Z,7.60
2022-09-04T16:41:18.999Z,6.30
2022-09-04T16:46:30.094Z,5.10
2022-09-04T16:51:40.264Z,4.80
2022-09-04T16:56:49.969Z,4.40
2022-09-04T17:02:00.833Z,6.40
2022-09-04T17:07:22.032Z,4.80
2022-09-04T17:12:35.214Z,3.70
2022-09-04T17:17:37.421Z,4.40
2022-09-04T17:27:56.918Z,5.10
2022-09-04T17:29:13.985Z,4.90
2022-09-04T17:40:43.843Z,2.80
2022-09-04T17:40:56.469Z,5.80
2022-09-04T17:45:22.513Z,3.70
2022-09-04T17:50:24.025Z,4.20
2022-09-04T17:55:25.494Z,6.10
2022-09-04T18:00:32.277Z,5.30
2022-09-04T18:05:42.541Z,3.70
2022-09-04T18:11:04.668Z,3.90
2022-09-04T18:16:20.060Z,3.30
2022-09-04T18:21:26.928Z,3.70
2022-09-04T18:26:41.071Z,4.50
2022-09-04T18:37:20.590Z,5.60
2022-09-04T18:37:44.085Z,5.10
2022-09-04T18:50:28.224Z,5.70
2022-09-04T18:50:40.778Z,7.00
2022-09-04T18:53:43.793Z,4.90
2022-09-04T18:59:03.719Z,6.70
2022-09-04T19:04:43.598Z,6.70
2022-09-04T19:10:02.981Z,5.30
2022-09-04T19:15:08.440Z,4.80
2022-09-04T19:20:18.213Z,5.60
2022-09-04T19:25:25.562Z,4.40
2022-09-04T19:30:30.507Z,7.20
2022-09-04T19:35:39.675Z,7.10
2022-09-04T19:46:03.652Z,8.50
2022-09-04T19:46:29.478Z,4.80
2022-09-04T19:53:24.012Z,8.70
2022-09-04T19:57:33.515Z,6.60
2022-09-04T20:02:46.003Z,7.90
2022-09-04T20:07:55.518Z,9.70
2022-09-04T20:13:03.617Z,8.60
2022-09-04T20:18:19.256Z,7.90
2022-09-04T20:23:33.953Z,4.50
2022-09-04T20:28:53.580Z,6.40
2022-09-04T20:33:58.377Z,4.50
2022-09-04T20:39:08.129Z,6.20
2022-09-04T20:44:23.326Z,3.50
2022-09-04T20:52:56.252Z,2.90
2022-09-04T20:55:10.205Z,3.00
2022-09-04T21:03:21.362Z,2.90
2022-09-04T21:06:06.963Z,1.80
2022-09-04T21:11:39.802Z,2.10
2022-09-04T21:16:44.993Z,2.30
2022-09-04T21:22:33.402Z,3.30
2022-09-04T21:28:20.047Z,2.80
2022-09-04T21:33:35.883Z,2.30
2022-09-04T21:39:10.081Z,4.10
2022-09-04T21:45:01.731Z,2.30
2022-09-04T21:51:02.279Z,1.90
2022-09-04T22:02:27.318Z,1.90
2022-09-04T22:02:44.602Z,3.10
2022-09-04T22:13:26.968Z,2.00
2022-09-04T22:13:41.543Z,1.80
2022-09-04T22:19:23.965Z,2.00
2022-09-04T22:25:01.789Z,1.70
2022-09-04T22:30:15.055Z,1.60
2022-09-04T22:35:58.451Z,1.30
2022-09-04T22:41:19.454Z,1.90
2022-09-04T22:46:37.964Z,1.80
2022-09-04T22:52:21.446Z,0.80
2022-09-04T22:57:35.671Z,2.50
2022-09-04T23:03:20.196Z,1.60
2022-09-04T23:13:50.103Z,1.20
2022-09-04T23:14:35.533Z,1.10
2022-09-04T23:26:30.908Z,1.70
2022-09-04T23:26:49.803Z,1.50
2022-09-04T23:31:34.158Z,1.90
2022-09-04T23:37:32.352Z,2.20
2022-09-04T23:43:29.176Z,2.30
2022-09-04T23:49:07.451Z,2.50
2022-09-04T23:54:57.969Z,1.70
